sensor_id;sensor_type;location;lat;lon;timestamp;P1;durP1;ratioP1;P2;durP2;ratioP2
49812;SDS011;35706;52.100;5.056;2024-02-04T03:35:46;32.65;;;7.50;;
49812;SDS011;35706;52.100;5.056;2024-02-04T03:36:49;30.92;;;7.75;;
49812;SDS011;35706;52.100;5.056;2024-02-04T03:37:50;31.10;;;8.50;;
49812;SDS011;35706;52.100;5.056;2024-02-04T03:38:50;29.20;;;7.63;;
49812;SDS011;35706;52.100;5.056;2024-02-04T03:39:51;28.80;;;6.85;;
49812;SDS011;35706;52.100;5.056;2024-02-04T03:40:51;21.98;;;7.10;;
49812;SDS011;35706;52.100;5.056;2024-02-04T03:41:52;19.15;;;5.80;;
49812;SDS011;35706;52.100;5.056;2024-02-04T03:42:52;25.17;;;6.07;;
49812;SDS011;35706;52.100;5.056;2024-02-04T03:43:53;21.80;;;5.75;;
49812;SDS011;35706;52.100;5.056;2024-02-04T03:44:55;19.92;;;4.82;;
49812;SDS011;35706;52.100;5.056;2024-02-04T03:45:56;24.65;;;6.47;;
49812;SDS011;35706;52.100;5.056;2024-02-04T03:46:57;27.88;;;6.13;;
49812;SDS011;35706;52.100;5.056;2024-02-04T03:47:57;17.83;;;3.45;;
49812;SDS011;35706;52.100;5.056;2024-02-04T03:48:57;21.80;;;3.30;;
49812;SDS011;35706;52.100;5.056;2024-02-04T03:49:58;18.80;;;3.05;;
49812;SDS011;35706;52.100;5.056;2024-02-04T03:50:58;22.42;;;2.70;;
49812;SDS011;35706;52.100;5.056;2024-02-04T03:51:58;15.07;;;2.47;;
49812;SDS011;35706;52.100;5.056;2024-02-04T03:52:58;21.20;;;2.85;;
49812;SDS011;35706;52.100;5.056;2024-02-04T03:53:59;16.92;;;2.60;;
49812;SDS011;35706;52.100;5.056;2024-02-04T03:54:59;9.45;;;2.25;;
49812;SDS011;35706;52.100;5.056;2024-02-04T03:55:59;14.40;;;1.55;;
49812;SDS011;35706;52.100;5.056;2024-02-04T03:57:00;14.60;;;2.08;;
49812;SDS011;35706;52.100;5.056;2024-02-04T03:58:00;11.35;;;1.30;;
49812;SDS011;35706;52.100;5.056;2024-02-04T03:59:00;14.43;;;1.10;;
49812;SDS011;35706;52.100;5.056;2024-02-04T04:00:01;14.07;;;1.55;;
49812;SDS011;35706;52.100;5.056;2024-02-04T04:01:01;11.38;;;1.00;;
49812;SDS011;35706;52.100;5.056;2024-02-04T04:02:02;13.02;;;0.90;;
49812;SDS011;35706;52.100;5.056;2024-02-04T04:03:02;7.15;;;1.00;;
49812;SDS011;35706;52.100;5.056;2024-02-04T04:04:02;8.75;;;0.80;;
49812;SDS011;35706;52.100;5.056;2024-02-04T04:05:03;13.63;;;1.13;;
49812;SDS011;35706;52.100;5.056;2024-02-04T04:06:05;14.13;;;0.98;;
49812;SDS011;35706;52.100;5.056;2024-02-04T04:07:05;15.48;;;1.20;;
49812;SDS011;35706;52.100;5.056;2024-02-04T04:08:05;12.45;;;1.23;;
49812;SDS011;35706;52.100;5.056;2024-02-04T04:09:06;13.85;;;1.10;;
49812;SDS011;35706;52.100;5.056;2024-02-04T04:10:06;10.65;;;1.10;;
49812;SDS011;35706;52.100;5.056;2024-02-04T04:11:08;8.13;;;1.20;;
49812;SDS011;35706;52.100;5.056;2024-02-04T04:12:09;11.18;;;1.75;;
49812;SDS011;35706;52.100;5.056;2024-02-04T04:13:09;9.50;;;1.45;;
49812;SDS011;35706;52.100;5.056;2024-02-04T04:14:10;13.90;;;1.65;;
49812;SDS011;35706;52.100;5.056;2024-02-04T04:15:10;19.65;;;1.92;;
49812;SDS011;35706;52.100;5.056;2024-02-04T04:16:10;12.88;;;1.75;;
49812;SDS011;35706;52.100;5.056;2024-02-04T04:17:10;14.73;;;2.83;;
49812;SDS011;35706;52.100;5.056;2024-02-04T04:18:11;15.05;;;2.45;;
49812;SDS011;35706;52.100;5.056;2024-02-04T04:19:12;19.77;;;3.47;;
49812;SDS011;35706;52.100;5.056;2024-02-04T04:20:13;22.25;;;3.65;;
49812;SDS011;35706;52.100;5.056;2024-02-04T04:21:13;24.02;;;3.42;;
49812;SDS011;35706;52.100;5.056;2024-02-04T04:22:13;22.77;;;3.55;;
49812;SDS011;35706;52.100;5.056;2024-02-04T04:23:14;21.00;;;4.78;;
49812;SDS011;35706;52.100;5.056;2024-02-04T04:24:14;23.30;;;4.90;;
49812;SDS011;35706;52.100;5.056;2024-02-04T04:25:19;19.80;;;3.80;;
49812;SDS011;35706;52.100;5.056;2024-02-04T04:26:20;21.85;;;5.72;;
49812;SDS011;35706;52.100;5.056;2024-02-04T04:27:20;26.00;;;5.65;;
49812;SDS011;35706;52.100;5.056;2024-02-04T04:28:20;39.67;;;6.45;;
49812;SDS011;35706;52.100;5.056;2024-02-04T04:29:20;23.45;;;6.30;;
49812;SDS011;35706;52.100;5.056;2024-02-04T04:30:21;28.30;;;6.63;;
49812;SDS011;35706;52.100;5.056;2024-02-04T04:31:21;28.00;;;5.85;;
49812;SDS011;35706;52.100;5.056;2024-02-04T04:32:21;24.95;;;6.65;;
49812;SDS011;35706;52.100;5.056;2024-02-04T04:33:22;26.85;;;7.63;;
49812;SDS011;35706;52.100;5.056;2024-02-04T04:34:22;22.35;;;7.18;;
49812;SDS011;35706;52.100;5.056;2024-02-04T04:35:22;26.25;;;7.40;;
49812;SDS011;35706;52.100;5.056;2024-02-04T04:36:23;28.33;;;7.28;;
49812;SDS011;35706;52.100;5.056;2024-02-04T04:37:23;25.40;;;7.10;;
49812;SDS011;35706;52.100;5.056;2024-02-04T04:38:23;20.30;;;7.20;;
49812;SDS011;35706;52.100;5.056;2024-02-04T04:39:24;23.63;;;7.13;;
49812;SDS011;35706;52.100;5.056;2024-02-04T04:40:24;26.75;;;7.88;;
49812;SDS011;35706;52.100;5.056;2024-02-04T04:41:25;24.13;;;6.38;;
49812;SDS011;35706;52.100;5.056;2024-02-04T04:42:25;19.95;;;7.05;;
49812;SDS011;35706;52.100;5.056;2024-02-04T04:43:25;26.50;;;7.07;;
49812;SDS011;35706;52.100;5.056;2024-02-04T04:44:27;31.83;;;8.25;;
49812;SDS011;35706;52.100;5.056;2024-02-04T04:45:27;24.63;;;7.43;;
49812;SDS011;35706;52.100;5.056;2024-02-04T04:46:27;26.30;;;7.70;;
49812;SDS011;35706;52.100;5.056;2024-02-04T04:47:28;22.35;;;7.10;;
49812;SDS011;35706;52.100;5.056;2024-02-04T04:48:28;30.10;;;8.05;;
49812;SDS011;35706;52.100;5.056;2024-02-04T04:49:28;29.13;;;7.40;;
49812;SDS011;35706;52.100;5.056;2024-02-04T04:50:29;28.35;;;7.03;;
49812;SDS011;35706;52.100;5.056;2024-02-04T04:51:29;26.08;;;7.90;;
49812;SDS011;35706;52.100;5.056;2024-02-04T04:52:29;23.17;;;7.10;;
49812;SDS011;35706;52.100;5.056;2024-02-04T04:53:29;31.98;;;7.93;;
49812;SDS011;35706;52.100;5.056;2024-02-04T04:54:30;23.45;;;7.75;;
49812;SDS011;35706;52.100;5.056;2024-02-04T04:55:30;29.75;;;8.90;;
49812;SDS011;35706;52.100;5.056;2024-02-04T04:56:35;25.23;;;7.05;;
49812;SDS011;35706;52.100;5.056;2024-02-04T04:57:38;23.10;;;6.55;;
49812;SDS011;35706;52.100;5.056;2024-02-04T04:58:38;22.90;;;7.13;;
49812;SDS011;35706;52.100;5.056;2024-02-04T04:59:39;32.25;;;6.97;;
49812;SDS011;35706;52.100;5.056;2024-02-04T05:00:39;28.23;;;7.55;;
49812;SDS011;35706;52.100;5.056;2024-02-04T05:01:49;20.98;;;6.47;;
49812;SDS011;35706;52.100;5.056;2024-02-04T05:02:49;28.73;;;7.25;;
49812;SDS011;35706;52.100;5.056;2024-02-04T05:03:49;21.60;;;5.55;;
49812;SDS011;35706;52.100;5.056;2024-02-04T05:04:50;25.48;;;6.63;;
49812;SDS011;35706;52.100;5.056;2024-02-04T05:05:50;23.42;;;6.80;;
49812;SDS011;35706;52.100;5.056;2024-02-04T05:06:51;23.00;;;6.80;;
49812;SDS011;35706;52.100;5.056;2024-02-04T05:07:51;28.00;;;7.22;;
49812;SDS011;35706;52.100;5.056;2024-02-04T05:08:52;16.88;;;5.97;;
49812;SDS011;35706;52.100;5.056;2024-02-04T05:09:52;20.80;;;6.15;;
49812;SDS011;35706;52.100;5.056;2024-02-04T05:10:53;26.75;;;5.95;;
49812;SDS011;35706;52.100;5.056;2024-02-04T05:11:53;25.25;;;6.20;;
49812;SDS011;35706;52.100;5.056;2024-02-04T05:12:53;18.95;;;4.65;;
49812;SDS011;35706;52.100;5.056;2024-02-04T05:13:54;19.90;;;4.43;;
49812;SDS011;35706;52.100;5.056;2024-02-04T05:14:54;16.83;;;4.35;;
49812;SDS011;35706;52.100;5.056;2024-02-04T05:15:54;15.82;;;3.72;;
49812;SDS011;35706;52.100;5.056;2024-02-04T05:16:55;17.83;;;4.25;;
49812;SDS011;35706;52.100;5.056;2024-02-04T05:17:55;18.58;;;4.97;;
49812;SDS011;35706;52.100;5.056;2024-02-04T05:18:55;23.45;;;4.25;;
49812;SDS011;35706;52.100;5.056;2024-02-04T05:19:56;14.98;;;4.13;;
49812;SDS011;35706;52.100;5.056;2024-02-04T05:20:56;21.85;;;4.57;;
49812;SDS011;35706;52.100;5.056;2024-02-04T05:21:56;15.93;;;3.90;;
49812;SDS011;35706;52.100;5.056;2024-02-04T05:22:56;14.80;;;3.58;;
49812;SDS011;35706;52.100;5.056;2024-02-04T05:23:57;16.50;;;3.67;;
49812;SDS011;35706;52.100;5.056;2024-02-04T05:24:57;13.85;;;3.38;;
49812;SDS011;35706;52.100;5.056;2024-02-04T05:26:02;17.50;;;3.42;;
49812;SDS011;35706;52.100;5.056;2024-02-04T05:27:04;19.48;;;3.83;;
49812;SDS011;35706;52.100;5.056;2024-02-04T05:28:04;14.68;;;3.63;;
49812;SDS011;35706;52.100;5.056;2024-02-04T05:29:06;19.88;;;3.72;;
49812;SDS011;35706;52.100;5.056;2024-02-04T05:30:06;13.38;;;3.45;;
49812;SDS011;35706;52.100;5.056;2024-02-04T05:31:07;18.55;;;4.63;;
49812;SDS011;35706;52.100;5.056;2024-02-04T05:32:07;13.18;;;3.50;;
49812;SDS011;35706;52.100;5.056;2024-02-04T05:33:08;15.48;;;3.45;;
49812;SDS011;35706;52.100;5.056;2024-02-04T05:34:09;12.50;;;3.55;;
49812;SDS011;35706;52.100;5.056;2024-02-04T05:35:12;15.73;;;4.93;;
49812;SDS011;35706;52.100;5.056;2024-02-04T05:36:12;12.35;;;4.55;;
49812;SDS011;35706;52.100;5.056;2024-02-04T05:37:13;25.20;;;5.70;;
49812;SDS011;35706;52.100;5.056;2024-02-04T05:38:13;15.52;;;4.75;;
49812;SDS011;35706;52.100;5.056;2024-02-04T05:39:14;19.08;;;6.40;;
49812;SDS011;35706;52.100;5.056;2024-02-04T05:40:15;24.13;;;6.28;;
49812;SDS011;35706;52.100;5.056;2024-02-04T05:41:18;26.60;;;6.82;;
49812;SDS011;35706;52.100;5.056;2024-02-04T05:42:19;23.50;;;7.18;;
49812;SDS011;35706;52.100;5.056;2024-02-04T05:43:19;22.95;;;6.35;;
49812;SDS011;35706;52.100;5.056;2024-02-04T05:44:19;21.02;;;7.10;;
49812;SDS011;35706;52.100;5.056;2024-02-04T05:45:20;25.42;;;7.15;;
49812;SDS011;35706;52.100;5.056;2024-02-04T05:46:20;24.42;;;8.00;;
49812;SDS011;35706;52.100;5.056;2024-02-04T05:47:20;32.25;;;8.43;;
49812;SDS011;35706;52.100;5.056;2024-02-04T05:48:20;29.83;;;9.15;;
49812;SDS011;35706;52.100;5.056;2024-02-04T05:49:21;23.70;;;8.57;;
49812;SDS011;35706;52.100;5.056;2024-02-04T05:50:21;21.45;;;8.95;;
49812;SDS011;35706;52.100;5.056;2024-02-04T05:51:22;29.38;;;9.57;;
49812;SDS011;35706;52.100;5.056;2024-02-04T05:52:22;27.95;;;10.77;;
49812;SDS011;35706;52.100;5.056;2024-02-04T05:53:22;29.98;;;9.70;;
49812;SDS011;35706;52.100;5.056;2024-02-04T05:54:23;25.60;;;9.63;;
49812;SDS011;35706;52.100;5.056;2024-02-04T05:55:23;27.45;;;10.85;;
49812;SDS011;35706;52.100;5.056;2024-02-04T05:56:23;41.53;;;12.90;;
49812;SDS011;35706;52.100;5.056;2024-02-04T05:57:24;36.47;;;12.52;;
49812;SDS011;35706;52.100;5.056;2024-02-04T05:58:24;43.88;;;13.75;;
49812;SDS011;35706;52.100;5.056;2024-02-04T05:59:24;38.28;;;13.70;;
49812;SDS011;35706;52.100;5.056;2024-02-04T06:00:25;43.25;;;14.25;;
49812;SDS011;35706;52.100;5.056;2024-02-04T06:01:26;43.85;;;15.35;;
49812;SDS011;35706;52.100;5.056;2024-02-04T06:02:26;47.78;;;16.25;;
49812;SDS011;35706;52.100;5.056;2024-02-04T06:03:27;50.42;;;16.10;;
49812;SDS011;35706;52.100;5.056;2024-02-04T06:04:27;50.30;;;16.95;;
49812;SDS011;35706;52.100;5.056;2024-02-04T06:05:28;54.30;;;18.92;;
49812;SDS011;35706;52.100;5.056;2024-02-04T06:06:29;52.15;;;18.90;;
49812;SDS011;35706;52.100;5.056;2024-02-04T06:07:29;50.50;;;19.67;;
49812;SDS011;35706;52.100;5.056;2024-02-04T06:08:29;58.75;;;19.60;;
49812;SDS011;35706;52.100;5.056;2024-02-04T06:09:31;55.30;;;20.25;;
49812;SDS011;35706;52.100;5.056;2024-02-04T06:10:32;58.08;;;20.60;;
49812;SDS011;35706;52.100;5.056;2024-02-04T06:11:32;58.83;;;20.23;;
49812;SDS011;35706;52.100;5.056;2024-02-04T06:12:33;55.80;;;20.92;;
49812;SDS011;35706;52.100;5.056;2024-02-04T06:13:33;58.83;;;21.45;;
49812;SDS011;35706;52.100;5.056;2024-02-04T06:14:33;51.25;;;21.77;;
49812;SDS011;35706;52.100;5.056;2024-02-04T06:15:36;62.92;;;21.10;;
49812;SDS011;35706;52.100;5.056;2024-02-04T06:16:36;45.35;;;21.10;;
49812;SDS011;35706;52.100;5.056;2024-02-04T06:17:36;47.80;;;21.15;;
49812;SDS011;35706;52.100;5.056;2024-02-04T06:18:37;51.50;;;21.70;;
49812;SDS011;35706;52.100;5.056;2024-02-04T06:19:38;50.08;;;20.85;;
49812;SDS011;35706;52.100;5.056;2024-02-04T06:20:38;49.28;;;19.73;;
49812;SDS011;35706;52.100;5.056;2024-02-04T06:21:39;51.85;;;21.42;;
49812;SDS011;35706;52.100;5.056;2024-02-04T06:22:39;49.72;;;20.80;;
49812;SDS011;35706;52.100;5.056;2024-02-04T06:23:40;45.13;;;19.00;;
49812;SDS011;35706;52.100;5.056;2024-02-04T06:24:40;57.60;;;19.77;;
49812;SDS011;35706;52.100;5.056;2024-02-04T06:25:41;43.33;;;18.88;;
49812;SDS011;35706;52.100;5.056;2024-02-04T06:26:41;46.53;;;18.17;;
49812;SDS011;35706;52.100;5.056;2024-02-04T06:27:41;40.53;;;17.08;;
49812;SDS011;35706;52.100;5.056;2024-02-04T06:28:42;47.15;;;18.40;;
49812;SDS011;35706;52.100;5.056;2024-02-04T06:29:46;35.85;;;16.48;;
49812;SDS011;35706;52.100;5.056;2024-02-04T06:30:46;40.15;;;17.40;;
49812;SDS011;35706;52.100;5.056;2024-02-04T06:31:46;46.10;;;17.58;;
49812;SDS011;35706;52.100;5.056;2024-02-04T06:32:47;45.08;;;16.80;;
49812;SDS011;35706;52.100;5.056;2024-02-04T06:33:49;39.60;;;16.27;;
49812;SDS011;35706;52.100;5.056;2024-02-04T06:34:50;39.58;;;15.55;;
49812;SDS011;35706;52.100;5.056;2024-02-04T06:35:51;35.17;;;15.02;;
49812;SDS011;35706;52.100;5.056;2024-02-04T06:36:51;39.13;;;15.68;;
49812;SDS011;35706;52.100;5.056;2024-02-04T06:37:52;48.10;;;16.05;;
49812;SDS011;35706;52.100;5.056;2024-02-04T06:38:52;35.85;;;16.08;;
49812;SDS011;35706;52.100;5.056;2024-02-04T06:39:52;49.45;;;15.95;;
49812;SDS011;35706;52.100;5.056;2024-02-04T06:40:53;46.15;;;15.55;;
49812;SDS011;35706;52.100;5.056;2024-02-04T06:41:53;49.53;;;17.45;;
49812;SDS011;35706;52.100;5.056;2024-02-04T06:42:53;38.05;;;14.65;;
49812;SDS011;35706;52.100;5.056;2024-02-04T06:43:54;40.92;;;14.80;;
49812;SDS011;35706;52.100;5.056;2024-02-04T06:44:54;38.70;;;14.00;;
49812;SDS011;35706;52.100;5.056;2024-02-04T06:45:54;38.03;;;14.15;;
49812;SDS011;35706;52.100;5.056;2024-02-04T06:46:54;33.35;;;13.35;;
49812;SDS011;35706;52.100;5.056;2024-02-04T06:47:55;41.13;;;13.95;;
49812;SDS011;35706;52.100;5.056;2024-02-04T06:48:55;40.22;;;13.90;;
49812;SDS011;35706;52.100;5.056;2024-02-04T06:49:56;35.70;;;14.40;;
49812;SDS011;35706;52.100;5.056;2024-02-04T06:50:56;34.42;;;13.70;;
49812;SDS011;35706;52.100;5.056;2024-02-04T06:51:56;38.80;;;12.60;;
49812;SDS011;35706;52.100;5.056;2024-02-04T06:52:57;32.55;;;13.27;;
49812;SDS011;35706;52.100;5.056;2024-02-04T06:53:57;27.67;;;13.77;;
49812;SDS011;35706;52.100;5.056;2024-02-04T06:54:58;36.65;;;13.43;;
49812;SDS011;35706;52.100;5.056;2024-02-04T06:55:58;37.95;;;14.10;;
49812;SDS011;35706;52.100;5.056;2024-02-04T06:56:58;40.53;;;14.48;;
49812;SDS011;35706;52.100;5.056;2024-02-04T06:57:59;32.08;;;13.43;;
49812;SDS011;35706;52.100;5.056;2024-02-04T06:58:59;38.80;;;14.38;;
49812;SDS011;35706;52.100;5.056;2024-02-04T06:59:59;30.92;;;12.32;;
49812;SDS011;35706;52.100;5.056;2024-02-04T07:01:00;40.22;;;14.25;;
49812;SDS011;35706;52.100;5.056;2024-02-04T07:02:00;30.65;;;13.90;;
49812;SDS011;35706;52.100;5.056;2024-02-04T07:03:00;31.10;;;13.02;;
49812;SDS011;35706;52.100;5.056;2024-02-04T07:04:01;35.08;;;12.77;;
49812;SDS011;35706;52.100;5.056;2024-02-04T07:05:01;26.88;;;12.35;;
49812;SDS011;35706;52.100;5.056;2024-02-04T07:06:01;30.45;;;13.68;;
49812;SDS011;35706;52.100;5.056;2024-02-04T07:07:01;28.77;;;11.98;;
49812;SDS011;35706;52.100;5.056;2024-02-04T07:08:02;35.25;;;12.43;;
49812;SDS011;35706;52.100;5.056;2024-02-04T07:09:02;29.02;;;12.82;;
49812;SDS011;35706;52.100;5.056;2024-02-04T07:10:03;29.05;;;12.57;;
49812;SDS011;35706;52.100;5.056;2024-02-04T07:11:03;37.55;;;12.65;;
49812;SDS011;35706;52.100;5.056;2024-02-04T07:12:04;29.85;;;12.00;;
49812;SDS011;35706;52.100;5.056;2024-02-04T07:13:05;29.20;;;12.32;;
49812;SDS011;35706;52.100;5.056;2024-02-04T07:14:06;29.88;;;11.43;;
49812;SDS011;35706;52.100;5.056;2024-02-04T07:15:06;28.27;;;12.60;;
49812;SDS011;35706;52.100;5.056;2024-02-04T07:16:08;24.70;;;11.73;;
49812;SDS011;35706;52.100;5.056;2024-02-04T07:17:08;31.15;;;11.95;;
49812;SDS011;35706;52.100;5.056;2024-02-04T07:18:09;22.85;;;11.10;;
49812;SDS011;35706;52.100;5.056;2024-02-04T07:19:09;29.05;;;12.88;;
49812;SDS011;35706;52.100;5.056;2024-02-04T07:20:09;27.02;;;12.20;;
49812;SDS011;35706;52.100;5.056;2024-02-04T07:21:10;26.95;;;11.05;;
49812;SDS011;35706;52.100;5.056;2024-02-04T07:22:10;26.77;;;11.18;;
49812;SDS011;35706;52.100;5.056;2024-02-04T07:23:10;27.75;;;11.07;;
49812;SDS011;35706;52.100;5.056;2024-02-04T07:24:11;27.48;;;11.45;;
49812;SDS011;35706;52.100;5.056;2024-02-04T07:25:11;29.75;;;11.30;;
49812;SDS011;35706;52.100;5.056;2024-02-04T07:26:12;19.38;;;10.15;;
49812;SDS011;35706;52.100;5.056;2024-02-04T07:27:12;28.30;;;11.27;;
49812;SDS011;35706;52.100;5.056;2024-02-04T07:28:12;26.05;;;10.20;;
49812;SDS011;35706;52.100;5.056;2024-02-04T07:29:13;26.15;;;9.90;;
49812;SDS011;35706;52.100;5.056;2024-02-04T07:30:13;26.52;;;10.57;;
49812;SDS011;35706;52.100;5.056;2024-02-04T07:31:14;23.40;;;9.45;;
49812;SDS011;35706;52.100;5.056;2024-02-04T07:32:15;27.02;;;10.10;;
49812;SDS011;35706;52.100;5.056;2024-02-04T07:33:15;30.17;;;9.95;;
49812;SDS011;35706;52.100;5.056;2024-02-04T07:34:15;31.08;;;10.52;;
49812;SDS011;35706;52.100;5.056;2024-02-04T07:35:16;23.40;;;10.50;;
49812;SDS011;35706;52.100;5.056;2024-02-04T07:36:16;23.27;;;9.43;;
49812;SDS011;35706;52.100;5.056;2024-02-04T07:37:17;25.15;;;9.65;;
49812;SDS011;35706;52.100;5.056;2024-02-04T07:38:18;26.77;;;10.82;;
49812;SDS011;35706;52.100;5.056;2024-02-04T07:39:18;29.08;;;11.07;;
49812;SDS011;35706;52.100;5.056;2024-02-04T07:40:18;20.98;;;9.60;;
49812;SDS011;35706;52.100;5.056;2024-02-04T07:41:19;18.95;;;8.55;;
49812;SDS011;35706;52.100;5.056;2024-02-04T07:42:19;27.35;;;9.65;;
49812;SDS011;35706;52.100;5.056;2024-02-04T07:43:19;27.50;;;8.70;;
49812;SDS011;35706;52.100;5.056;2024-02-04T07:44:20;21.63;;;8.07;;
49812;SDS011;35706;52.100;5.056;2024-02-04T07:45:20;21.33;;;8.05;;
49812;SDS011;35706;52.100;5.056;2024-02-04T07:46:20;25.02;;;9.07;;
49812;SDS011;35706;52.100;5.056;2024-02-04T07:47:21;24.67;;;7.32;;
49812;SDS011;35706;52.100;5.056;2024-02-04T07:48:21;15.73;;;5.93;;
49812;SDS011;35706;52.100;5.056;2024-02-04T07:49:22;19.50;;;5.78;;
49812;SDS011;35706;52.100;5.056;2024-02-04T07:50:22;13.35;;;6.03;;
49812;SDS011;35706;52.100;5.056;2024-02-04T07:51:22;21.35;;;6.00;;
49812;SDS011;35706;52.100;5.056;2024-02-04T07:52:23;13.77;;;5.80;;
49812;SDS011;35706;52.100;5.056;2024-02-04T07:53:24;15.27;;;5.75;;
49812;SDS011;35706;52.100;5.056;2024-02-04T07:54:24;13.13;;;4.40;;
49812;SDS011;35706;52.100;5.056;2024-02-04T07:55:25;13.15;;;4.15;;
49812;SDS011;35706;52.100;5.056;2024-02-04T07:56:25;22.85;;;4.50;;
49812;SDS011;35706;52.100;5.056;2024-02-04T07:57:25;9.55;;;3.53;;
49812;SDS011;35706;52.100;5.056;2024-02-04T07:58:26;9.65;;;3.45;;
49812;SDS011;35706;52.100;5.056;2024-02-04T07:59:27;13.57;;;4.05;;
49812;SDS011;35706;52.100;5.056;2024-02-04T08:00:27;11.40;;;3.17;;
49812;SDS011;35706;52.100;5.056;2024-02-04T08:01:28;8.18;;;2.60;;
49812;SDS011;35706;52.100;5.056;2024-02-04T08:02:28;11.20;;;2.70;;
49812;SDS011;35706;52.100;5.056;2024-02-04T08:03:29;11.13;;;2.47;;
49812;SDS011;35706;52.100;5.056;2024-02-04T08:04:29;10.98;;;2.42;;
49812;SDS011;35706;52.100;5.056;2024-02-04T08:05:29;8.55;;;1.77;;
49812;SDS011;35706;52.100;5.056;2024-02-04T08:06:31;10.10;;;1.77;;
49812;SDS011;35706;52.100;5.056;2024-02-04T08:07:34;6.90;;;1.20;;
49812;SDS011;35706;52.100;5.056;2024-02-04T08:08:34;5.50;;;1.20;;
49812;SDS011;35706;52.100;5.056;2024-02-04T08:09:34;6.40;;;1.05;;
49812;SDS011;35706;52.100;5.056;2024-02-04T08:10:35;7.63;;;1.08;;
49812;SDS011;35706;52.100;5.056;2024-02-04T08:11:35;9.65;;;1.40;;
49812;SDS011;35706;52.100;5.056;2024-02-04T08:12:36;6.93;;;1.00;;
49812;SDS011;35706;52.100;5.056;2024-02-04T08:13:36;5.60;;;1.00;;
49812;SDS011;35706;52.100;5.056;2024-02-04T08:14:36;7.35;;;1.00;;
49812;SDS011;35706;52.100;5.056;2024-02-04T08:15:37;5.28;;;1.30;;
49812;SDS011;35706;52.100;5.056;2024-02-04T08:16:37;6.13;;;1.17;;
49812;SDS011;35706;52.100;5.056;2024-02-04T08:17:37;4.38;;;1.20;;
49812;SDS011;35706;52.100;5.056;2024-02-04T08:18:38;7.28;;;1.45;;
49812;SDS011;35706;52.100;5.056;2024-02-04T08:19:38;7.93;;;1.88;;
49812;SDS011;35706;52.100;5.056;2024-02-04T08:20:38;8.48;;;1.92;;
49812;SDS011;35706;52.100;5.056;2024-02-04T08:21:39;6.55;;;1.50;;
49812;SDS011;35706;52.100;5.056;2024-02-04T08:22:39;5.97;;;2.10;;
49812;SDS011;35706;52.100;5.056;2024-02-04T08:23:39;8.88;;;2.67;;
49812;SDS011;35706;52.100;5.056;2024-02-04T08:24:40;4.35;;;2.40;;
49812;SDS011;35706;52.100;5.056;2024-02-04T08:25:40;7.30;;;3.10;;
49812;SDS011;35706;52.100;5.056;2024-02-04T08:26:41;13.70;;;3.55;;
49812;SDS011;35706;52.100;5.056;2024-02-04T08:27:41;8.18;;;3.58;;
49812;SDS011;35706;52.100;5.056;2024-02-04T08:28:42;13.10;;;4.13;;
49812;SDS011;35706;52.100;5.056;2024-02-04T08:29:42;11.63;;;4.60;;
49812;SDS011;35706;52.100;5.056;2024-02-04T08:30:43;17.50;;;5.07;;
49812;SDS011;35706;52.100;5.056;2024-02-04T08:31:43;17.38;;;5.25;;
49812;SDS011;35706;52.100;5.056;2024-02-04T08:32:45;21.77;;;6.00;;
49812;SDS011;35706;52.100;5.056;2024-02-04T08:33:45;17.60;;;6.63;;
49812;SDS011;35706;52.100;5.056;2024-02-04T08:34:46;21.38;;;8.05;;
49812;SDS011;35706;52.100;5.056;2024-02-04T08:35:46;17.00;;;7.97;;
49812;SDS011;35706;52.100;5.056;2024-02-04T08:36:46;17.55;;;8.57;;
49812;SDS011;35706;52.100;5.056;2024-02-04T08:37:48;29.30;;;9.10;;
49812;SDS011;35706;52.100;5.056;2024-02-04T08:38:48;22.60;;;9.63;;
49812;SDS011;35706;52.100;5.056;2024-02-04T08:39:48;29.30;;;9.68;;
49812;SDS011;35706;52.100;5.056;2024-02-04T08:40:49;28.98;;;7.93;;
49812;SDS011;35706;52.100;5.056;2024-02-04T08:41:49;31.45;;;8.50;;
49812;SDS011;35706;52.100;5.056;2024-02-04T08:42:49;35.80;;;8.07;;
49812;SDS011;35706;52.100;5.056;2024-02-04T08:43:50;22.15;;;7.47;;
49812;SDS011;35706;52.100;5.056;2024-02-04T08:44:50;26.40;;;7.18;;
49812;SDS011;35706;52.100;5.056;2024-02-04T08:45:50;16.60;;;6.40;;
49812;SDS011;35706;52.100;5.056;2024-02-04T08:46:51;18.50;;;5.88;;
49812;SDS011;35706;52.100;5.056;2024-02-04T08:47:51;14.70;;;5.95;;
49812;SDS011;35706;52.100;5.056;2024-02-04T08:48:51;19.30;;;6.30;;
49812;SDS011;35706;52.100;5.056;2024-02-04T08:49:52;17.08;;;5.15;;
49812;SDS011;35706;52.100;5.056;2024-02-04T08:50:52;19.02;;;5.80;;
49812;SDS011;35706;52.100;5.056;2024-02-04T08:51:54;18.88;;;4.78;;
49812;SDS011;35706;52.100;5.056;2024-02-04T08:52:54;10.02;;;4.57;;
49812;SDS011;35706;52.100;5.056;2024-02-04T08:53:55;15.18;;;3.83;;
49812;SDS011;35706;52.100;5.056;2024-02-04T08:54:55;14.05;;;3.67;;
49812;SDS011;35706;52.100;5.056;2024-02-04T08:55:55;12.23;;;3.35;;
49812;SDS011;35706;52.100;5.056;2024-02-04T08:56:56;8.73;;;2.65;;
49812;SDS011;35706;52.100;5.056;2024-02-04T08:57:56;15.43;;;2.67;;
49812;SDS011;35706;52.100;5.056;2024-02-04T08:58:56;15.40;;;2.80;;
49812;SDS011;35706;52.100;5.056;2024-02-04T08:59:57;10.13;;;2.17;;
49812;SDS011;35706;52.100;5.056;2024-02-04T09:00:57;10.23;;;2.30;;
49812;SDS011;35706;52.100;5.056;2024-02-04T09:01:58;11.57;;;2.28;;
49812;SDS011;35706;52.100;5.056;2024-02-04T09:02:58;12.52;;;2.30;;
49812;SDS011;35706;52.100;5.056;2024-02-04T09:03:59;8.57;;;1.52;;
49812;SDS011;35706;52.100;5.056;2024-02-04T09:04:59;8.95;;;1.92;;
49812;SDS011;35706;52.100;5.056;2024-02-04T09:05:59;5.78;;;1.50;;
49812;SDS011;35706;52.100;5.056;2024-02-04T09:06:59;12.43;;;1.48;;
49812;SDS011;35706;52.100;5.056;2024-02-04T09:08:00;12.52;;;1.45;;
49812;SDS011;35706;52.100;5.056;2024-02-04T09:09:01;8.68;;;1.58;;
49812;SDS011;35706;52.100;5.056;2024-02-04T09:10:01;9.80;;;1.67;;
49812;SDS011;35706;52.100;5.056;2024-02-04T09:11:02;7.25;;;0.90;;
49812;SDS011;35706;52.100;5.056;2024-02-04T09:12:02;11.10;;;1.00;;
49812;SDS011;35706;52.100;5.056;2024-02-04T09:13:03;10.93;;;1.30;;
49812;SDS011;35706;52.100;5.056;2024-02-04T09:14:03;7.80;;;1.00;;
49812;SDS011;35706;52.100;5.056;2024-02-04T09:15:04;10.75;;;1.00;;
49812;SDS011;35706;52.100;5.056;2024-02-04T09:16:05;4.75;;;0.90;;
49812;SDS011;35706;52.100;5.056;2024-02-04T09:17:05;10.52;;;1.20;;
49812;SDS011;35706;52.100;5.056;2024-02-04T09:18:06;10.45;;;1.23;;
49812;SDS011;35706;52.100;5.056;2024-02-04T09:19:06;10.50;;;1.20;;
49812;SDS011;35706;52.100;5.056;2024-02-04T09:20:07;6.90;;;1.08;;
49812;SDS011;35706;52.100;5.056;2024-02-04T09:21:07;7.00;;;0.80;;
49812;SDS011;35706;52.100;5.056;2024-02-04T09:22:08;5.45;;;0.90;;
49812;SDS011;35706;52.100;5.056;2024-02-04T09:23:08;6.75;;;1.20;;
49812;SDS011;35706;52.100;5.056;2024-02-04T09:24:09;9.63;;;0.95;;
49812;SDS011;35706;52.100;5.056;2024-02-04T09:25:09;9.27;;;1.38;;
49812;SDS011;35706;52.100;5.056;2024-02-04T09:26:10;5.05;;;0.80;;
49812;SDS011;35706;52.100;5.056;2024-02-04T09:27:10;6.55;;;1.20;;
49812;SDS011;35706;52.100;5.056;2024-02-04T09:28:10;8.60;;;0.77;;
49812;SDS011;35706;52.100;5.056;2024-02-04T09:29:11;10.50;;;1.67;;
49812;SDS011;35706;52.100;5.056;2024-02-04T09:30:11;13.50;;;0.90;;
49812;SDS011;35706;52.100;5.056;2024-02-04T09:31:12;6.50;;;0.80;;
49812;SDS011;35706;52.100;5.056;2024-02-04T09:32:12;7.00;;;0.90;;
49812;SDS011;35706;52.100;5.056;2024-02-04T09:33:13;8.45;;;0.80;;
49812;SDS011;35706;52.100;5.056;2024-02-04T09:34:14;12.52;;;0.90;;